Time;durP1;ratioP1;P1;durP2;ratioP2;P2;SDS_P1;SDS_P2;PMS_P1;PMS_P2;Temp;Humidity;BMP_temperature;BMP_pressure;BME280_temperature;BME280_humidity;BME280_pressure;Samples;Min_cycle;Max_cycle;Signal;HPM_P1;HPM_P2
2023/10/13 00:02:07;;;;;;;3.30;2.90;;;;;;;12.79;86.66;99836.13;219837;1262;139649;-71
2023/10/13 00:07:13;;;;;;;11.80;3.40;;;;;;;12.81;86.82;99846.16;217445;1262;140140;-70
2023/10/13 00:12:23;;;;;;;13.00;4.80;;;;;;;12.86;87.01;99850.37;219845;1263;142443;-71
2023/10/13 00:17:27;;;;;;;9.60;4.20;;;;;;;12.87;87.00;99853.50;218220;1262;141687;-70
2023/10/13 00:22:33;;;;;;;5.00;4.20;;;;;;;12.87;86.62;99851.67;216852;1261;139778;-71
2023/10/13 00:27:41;;;;;;;7.80;4.00;;;;;;;12.86;86.64;99850.16;219167;1265;141447;-71
2023/10/13 00:32:55;;;;;;;8.20;4.00;;;;;;;12.86;86.89;99840.79;218505;1258;139684;-71
2023/10/13 00:38:12;;;;;;;10.70;5.20;;;;;;;12.88;87.07;99829.91;218210;1258;139497;-71
2023/10/13 00:48:33;;;;;;;12.50;5.30;;;;;;;12.88;87.32;99824.98;218479;1262;140408;-71
2023/10/13 00:53:44;;;;;;;9.80;4.50;;;;;;;12.86;87.21;99819.30;218357;1260;139739;-70
2023/10/13 00:58:53;;;;;;;7.80;4.10;;;;;;;12.82;87.00;99824.61;217199;1259;139661;-71
2023/10/13 01:04:00;;;;;;;4.20;3.40;;;;;;;12.78;87.34;99829.20;217587;1258;140137;-70
2023/10/13 01:09:19;;;;;;;10.80;4.30;;;;;;;12.77;87.63;99833.10;217850;1259;140478;-71
2023/10/13 01:14:28;;;;;;;5.80;3.50;;;;;;;12.75;87.80;99826.76;217450;1258;140833;-71
2023/10/13 01:19:42;;;;;;;9.60;5.60;;;;;;;12.74;87.82;99830.05;218650;1258;139528;-71
2023/10/13 01:24:48;;;;;;;13.90;4.80;;;;;;;12.74;87.89;99830.81;217627;1260;139195;-71
2023/10/13 01:30:16;;;;;;;9.40;5.50;;;;;;;12.75;87.87;99838.42;217992;1258;139496;-71
2023/10/13 01:35:24;;;;;;;14.40;5.60;;;;;;;12.73;87.74;99840.80;219171;1259;139683;-70
2023/10/13 01:40:33;;;;;;;10.70;5.00;;;;;;;12.74;88.02;99845.73;217466;1262;141448;-71
2023/10/13 01:45:46;;;;;;;9.30;4.60;;;;;;;12.72;87.91;99852.60;218900;1258;140561;-72
2023/10/13 01:51:02;;;;;;;11.60;5.70;;;;;;;12.72;88.01;99849.66;218908;1259;140131;-71
2023/10/13 01:56:10;;;;;;;7.80;5.70;;;;;;;12.73;88.11;99843.95;218543;1259;140912;-70
2023/10/13 02:01:26;;;;;;;8.70;5.20;;;;;;;12.73;88.03;99845.73;220008;1259;141007;-72
2023/10/13 02:06:33;;;;;;;13.30;6.10;;;;;;;12.75;87.95;99840.88;220181;1259;140785;-72
2023/10/13 02:11:45;;;;;;;12.50;5.00;;;;;;;12.78;87.95;99845.42;219374;1259;140226;-67
2023/10/13 02:16:50;;;;;;;11.20;5.00;;;;;;;12.79;88.01;99846.67;218142;1262;425934;-70
2023/10/13 02:22:04;;;;;;;10.30;5.90;;;;;;;12.79;87.91;99851.85;217415;1259;139949;-70
2023/10/13 02:27:13;;;;;;;5.70;2.40;;;;;;;12.72;87.15;99852.02;217341;1260;140248;-71
2023/10/13 02:32:18;;;;;;;5.10;1.50;;;;;;;12.52;85.78;99848.14;218610;1262;139853;-70
2023/10/13 02:37:24;;;;;;;5.30;2.40;;;;;;;12.31;85.20;99848.70;217157;1259;141099;-70
2023/10/13 02:42:31;;;;;;;5.50;3.10;;;;;;;12.07;85.15;99842.55;218671;1262;139760;-70
2023/10/13 02:47:36;;;;;;;5.70;4.90;;;;;;;11.96;85.17;99851.66;217290;1259;139979;-70
2023/10/13 02:52:42;;;;;;;4.50;3.80;;;;;;;11.87;85.75;99851.98;217864;1259;140342;-70
2023/10/13 02:57:48;;;;;;;8.00;3.40;;;;;;;11.84;85.94;99851.55;217264;1262;139629;-71
2023/10/13 03:02:58;;;;;;;7.20;1.90;;;;;;;11.79;85.88;99852.05;217391;1257;139352;-70
2023/10/13 03:08:04;;;;;;;10.30;1.50;;;;;;;11.74;86.05;99854.48;217973;1259;140316;-70
2023/10/13 03:13:09;;;;;;;5.00;1.90;;;;;;;11.73;86.40;99867.39;218005;1259;140585;-70
2023/10/13 03:18:18;;;;;;;4.90;1.90;;;;;;;11.67;86.38;99863.76;217672;1259;139335;-70
2023/10/13 03:23:24;;;;;;;8.70;2.20;;;;;;;11.57;86.27;99873.46;217279;1260;141061;-70
2023/10/13 03:28:33;;;;;;;5.80;2.20;;;;;;;11.47;85.98;99865.30;217415;1260;139359;-70
2023/10/13 03:33:42;;;;;;;5.50;1.40;;;;;;;11.29;86.09;99854.81;217267;1258;140687;-72
2023/10/13 03:38:54;;;;;;;3.30;1.70;;;;;;;11.19;86.67;99847.30;218447;1259;139842;-70
2023/10/13 03:44:14;;;;;;;4.10;1.80;;;;;;;11.12;86.70;99852.15;218052;1257;160289;-69
2023/10/13 03:49:21;;;;;;;18.10;2.30;;;;;;;11.05;86.75;99847.16;218317;1259;140411;-70
2023/10/13 03:54:30;;;;;;;5.20;3.40;;;;;;;10.99;87.12;99844.01;217398;1260;139985;-69
2023/10/13 03:59:36;;;;;;;4.90;2.10;;;;;;;10.97;87.65;99844.34;220069;1262;140645;-70
2023/10/13 04:04:53;;;;;;;4.70;1.70;;;;;;;11.02;88.06;99836.95;218093;1261;139812;-69
2023/10/13 04:15:23;;;;;;;7.60;3.70;;;;;;;11.20;88.18;99828.16;218976;1260;139638;-67
2023/10/13 04:20:32;;;;;;;6.70;3.40;;;;;;;11.26;87.90;99825.17;218643;1257;139512;-68
2023/10/13 04:41:42;;;;;;;4.50;3.10;;;;;;;11.32;88.15;99834.84;218178;1259;140079;-69
2023/10/13 04:47:07;;;;;;;5.80;2.30;;;;;;;11.31;88.23;99837.49;218296;1260;140684;-68
2023/10/13 04:52:26;;;;;;;6.20;2.50;;;;;;;11.30;88.51;99824.46;218433;1260;139581;-69
2023/10/13 04:57:46;;;;;;;5.10;2.10;;;;;;;11.31;88.33;99830.61;217781;1260;140633;-69
2023/10/13 06:29:19;;;;;;;5.50;4.20;;;;;;;11.64;89.77;99864.14;217436;1257;139986;-72
2023/10/13 06:34:37;;;;;;;13.10;5.50;;;;;;;11.66;90.26;99866.77;218127;1260;139689;-71
2023/10/13 06:39:46;;;;;;;5.70;4.60;;;;;;;11.74;90.68;99867.05;217541;1257;139999;-71
2023/10/13 06:44:53;;;;;;;10.40;5.10;;;;;;;11.80;90.48;99868.43;218216;1257;140198;-68
2023/10/13 06:49:59;;;;;;;;;;;;;;;11.86;90.86;99868.36;217529;1260;140682;-68
2023/10/13 06:55:06;;;;;;;8.80;6.80;;;;;;;11.84;91.11;99868.85;218215;1260;127947;-69
2023/10/13 07:00:34;;;;;;;9.00;5.60;;;;;;;11.93;91.19;99876.61;218802;1256;140311;-69
2023/10/13 07:05:41;;;;;;;13.20;6.80;;;;;;;12.03;91.48;99872.88;218017;1257;140480;-70
2023/10/13 07:11:17;;;;;;;11.40;8.30;;;;;;;12.08;91.51;99875.38;218079;1257;139700;-70
2023/10/13 07:16:23;;;;;;;10.20;6.90;;;;;;;12.13;91.83;99868.63;218115;1257;142039;-69
2023/10/13 07:21:33;;;;;;;13.80;9.40;;;;;;;12.20;92.26;99871.42;218193;1258;139358;-70
2023/10/13 07:26:57;;;;;;;12.50;8.60;;;;;;;12.28;92.53;99872.61;217922;1257;247720;-69
2023/10/13 07:32:03;;;;;;;18.30;11.10;;;;;;;12.37;92.49;99862.98;218645;1257;139970;-69
2023/10/13 07:37:16;;;;;;;15.70;10.00;;;;;;;12.47;92.71;99859.57;217863;1256;140548;-69
2023/10/13 07:42:21;;;;;;;18.80;9.70;;;;;;;12.56;92.73;99857.16;219006;1258;140611;-69
2023/10/13 07:47:28;;;;;;;14.70;9.70;;;;;;;12.62;92.94;99857.58;219708;1257;139515;-70
2023/10/13 07:52:54;;;;;;;15.20;9.90;;;;;;;12.70;93.00;99855.15;218125;1257;140197;-69
2023/10/13 07:58:07;;;;;;;13.40;9.80;;;;;;;12.77;93.00;99854.73;220418;1257;141396;-70
2023/10/13 08:08:25;;;;;;;11.90;7.40;;;;;;;13.01;93.52;99845.56;220355;1257;141164;-73
2023/10/13 08:13:31;;;;;;;14.30;9.20;;;;;;;13.16;93.14;99839.02;220387;1257;141501;-73
2023/10/13 08:18:36;;;;;;;15.90;8.60;;;;;;;13.32;93.46;99842.83;218799;1257;140096;-71
2023/10/13 08:34:29;;;;;;;11.20;8.50;;;;;;;13.83;93.27;99828.77;217733;1257;139767;-71
2023/10/13 08:45:20;;;;;;;13.50;10.30;;;;;;;14.11;93.31;99821.21;217870;1257;140883;-70
2023/10/13 08:56:04;;;;;;;14.80;10.10;;;;;;;14.46;93.26;99802.67;217954;1257;139585;-70
2023/10/13 09:01:13;;;;;;;20.80;11.00;;;;;;;14.80;93.97;99800.63;218125;1257;141323;-71
2023/10/13 09:06:19;;;;;;;19.10;9.60;;;;;;;15.19;93.88;99801.06;217702;1257;139953;-71
2023/10/13 09:11:27;;;;;;;18.80;11.20;;;;;;;15.51;93.31;99796.27;218674;1256;140822;-70
2023/10/13 09:21:48;;;;;;;16.80;10.70;;;;;;;16.05;92.80;99786.94;217950;1257;142240;-72
2023/10/13 09:26:55;;;;;;;14.30;11.30;;;;;;;16.53;92.87;99787.70;218765;1257;140643;-69
2023/10/13 09:32:01;;;;;;;;;;;;;;;16.85;91.97;99794.42;217603;1257;140197;-70
2023/10/13 09:37:11;;;;;;;20.60;10.00;;;;;;;17.08;91.74;99791.48;218369;1260;125921;-70
2023/10/13 09:42:18;;;;;;;12.00;7.50;;;;;;;17.43;91.18;99789.42;219019;1258;140658;-71
2023/10/13 09:47:36;;;;;;;13.80;10.80;;;;;;;17.78;90.31;99791.87;220000;1257;139911;-70
2023/10/13 09:52:45;;;;;;;12.40;9.30;;;;;;;17.97;89.23;99793.84;219011;1259;139999;-71
2023/10/13 09:58:09;;;;;;;13.50;10.20;;;;;;;18.21;88.77;99791.80;219437;1257;140460;-72
2023/10/13 10:08:50;;;;;;;17.70;9.60;;;;;;;18.70;87.49;99776.27;219059;1257;139817;-70
2023/10/13 10:14:01;;;;;;;17.00;9.90;;;;;;;18.92;87.24;99768.18;218451;1257;139467;-68
2023/10/13 10:19:07;;;;;;;13.70;8.20;;;;;;;19.20;86.43;99763.07;218489;1256;140766;-68
2023/10/13 10:24:29;;;;;;;16.30;9.40;;;;;;;19.40;85.67;99759.77;218204;1256;142185;-67
2023/10/13 10:29:35;;;;;;;19.60;10.50;;;;;;;19.62;85.06;99745.24;218673;1256;140914;-69
2023/10/13 10:34:41;;;;;;;16.50;8.80;;;;;;;19.91;84.42;99739.59;218447;1256;139811;-69
2023/10/13 10:39:49;;;;;;;16.20;9.30;;;;;;;20.11;83.69;99732.55;217723;1257;139680;-68
2023/10/13 10:45:05;;;;;;;18.10;9.40;;;;;;;20.14;82.80;99723.60;218036;1258;140418;-69
2023/10/13 10:50:26;;;;;;;13.20;7.90;;;;;;;20.04;82.30;99724.13;218167;1257;139740;-68
2023/10/13 10:55:30;;;;;;;11.10;6.40;;;;;;;20.05;81.87;99718.41;217782;1260;140528;-66
2023/10/13 11:01:01;;;;;;;11.40;6.60;;;;;;;20.42;81.15;99707.03;218176;1256;140260;-70
2023/10/13 11:06:04;;;;;;;8.20;5.40;;;;;;;20.45;79.68;99702.23;217830;1256;140796;-69
2023/10/13 11:11:17;;;;;;;10.00;6.50;;;;;;;20.39;79.12;99701.40;217804;1257;140636;-70
2023/10/13 11:16:27;;;;;;;6.80;5.70;;;;;;;20.23;78.40;99692.41;218057;1260;140078;-71
2023/10/13 11:21:32;;;;;;;9.50;6.30;;;;;;;20.32;78.54;99689.06;218076;1257;140587;-68
2023/10/13 11:26:49;;;;;;;10.00;6.60;;;;;;;20.37;77.98;99683.14;218313;1257;140157;-69
2023/10/13 11:31:58;;;;;;;9.10;6.90;;;;;;;20.66;77.57;99684.03;218053;1260;139663;-72
2023/10/13 11:37:28;;;;;;;9.20;6.30;;;;;;;20.87;76.36;99674.70;218872;1256;140540;-71
2023/10/13 11:42:30;;;;;;;9.20;6.20;;;;;;;20.52;75.10;99665.90;217595;1257;141430;-71
2023/10/13 11:53:19;;;;;;;13.10;5.10;;;;;;;20.23;75.69;99661.68;218051;1264;140369;-68
2023/10/13 11:58:23;;;;;;;10.70;6.40;;;;;;;20.06;75.14;99653.30;219439;1256;139701;-70
2023/10/13 12:08:52;;;;;;;5.80;5.20;;;;;;;20.03;75.44;99651.78;219208;1258;139452;-69
2023/10/13 12:13:58;;;;;;;12.90;6.70;;;;;;;20.00;75.00;99645.34;218570;1257;140130;-68
2023/10/13 12:19:07;;;;;;;6.80;5.90;;;;;;;20.07;75.00;99624.05;218123;1257;234398;-67
2023/10/13 12:24:22;;;;;;;8.80;5.80;;;;;;;20.58;75.14;99618.16;218023;1259;140287;-68
2023/10/13 12:29:34;;;;;;;7.90;5.20;;;;;;;20.88;74.49;99615.88;217530;1257;139956;-71
2023/10/13 12:56:28;;;;;;;8.90;5.30;;;;;;;20.79;72.30;99602.00;218177;1256;140467;-71
2023/10/13 13:01:42;;;;;;;6.80;5.50;;;;;;;20.57;71.86;99605.30;218198;1258;139708;-74
2023/10/13 13:06:48;;;;;;;7.40;5.40;;;;;;;20.33;71.94;99601.02;218815;1257;139925;-70
2023/10/13 13:11:57;;;;;;;10.80;5.10;;;;;;;20.24;72.33;99600.54;218206;1257;232364;-70
2023/10/13 13:17:05;;;;;;;7.20;6.10;;;;;;;20.11;72.33;99590.20;217878;1256;139590;-70
2023/10/13 13:22:12;;;;;;;7.20;5.00;;;;;;;19.94;72.40;99586.52;217800;1257;140417;-71
2023/10/13 13:27:19;;;;;;;8.40;6.00;;;;;;;19.83;72.53;99582.79;219082;1257;139930;-70
2023/10/13 13:32:28;;;;;;;10.50;6.40;;;;;;;19.74;72.70;99578.52;217600;1260;141714;-67
2023/10/13 13:37:34;;;;;;;12.70;7.00;;;;;;;19.60;72.83;99571.42;217697;1257;140018;-73
2023/10/13 13:42:40;;;;;;;;;;;;;;;19.50;72.93;99570.56;218727;1257;139868;-68
2023/10/13 13:47:45;;;;;;;7.20;6.10;;;;;;;19.43;73.39;99558.17;219119;1257;126108;-68
2023/10/13 13:52:55;;;;;;;8.40;5.00;;;;;;;19.36;73.39;99538.88;219233;1257;139609;-70
2023/10/13 13:58:07;;;;;;;12.30;5.80;;;;;;;19.28;73.62;99527.52;218887;1257;140287;-70
2023/10/13 14:03:26;;;;;;;10.30;7.20;;;;;;;19.13;73.71;99520.91;217619;1257;141673;-70
2023/10/13 14:08:35;;;;;;;11.30;7.10;;;;;;;19.15;74.28;99517.20;219846;1256;140435;-70
2023/10/13 14:13:49;;;;;;;8.90;6.70;;;;;;;19.25;74.39;99507.64;218147;1257;141297;-69
2023/10/13 14:18:58;;;;;;;7.10;6.40;;;;;;;19.29;74.61;99510.48;217923;1257;855339;-68
2023/10/13 14:24:12;;;;;;;9.00;7.30;;;;;;;19.23;74.56;99509.61;217690;1257;141534;-69
2023/10/13 14:29:26;;;;;;;7.80;6.90;;;;;;;19.12;74.68;99507.08;218660;1256;140704;-69
2023/10/13 14:34:31;;;;;;;9.20;6.80;;;;;;;19.02;74.85;99504.17;217862;1257;140056;-70
2023/10/13 14:39:36;;;;;;;7.90;6.80;;;;;;;18.95;75.20;99499.71;218322;1256;139814;-71
2023/10/13 14:44:41;;;;;;;8.00;7.20;;;;;;;18.93;75.44;99490.30;217821;1260;140515;-71
2023/10/13 14:49:46;;;;;;;11.40;6.30;;;;;;;18.92;75.58;99490.91;218415;1259;140186;-68
2023/10/13 14:54:55;;;;;;;8.20;5.60;;;;;;;18.92;75.96;99480.33;217677;1257;139652;-67
2023/10/13 15:00:02;;;;;;;11.80;7.10;;;;;;;18.93;76.01;99467.12;218040;1260;139609;-71
2023/10/13 15:05:08;;;;;;;8.00;5.70;;;;;;;18.93;76.01;99466.53;217975;1256;244739;-69
2023/10/13 15:10:20;;;;;;;14.00;6.30;;;;;;;18.86;75.90;99465.67;217534;1260;139827;-70
2023/10/13 15:15:26;;;;;;;7.50;6.70;;;;;;;18.73;75.91;99467.44;217641;1257;139878;-73
2023/10/13 15:20:43;;;;;;;6.90;5.00;;;;;;;18.63;76.11;99461.88;218347;1257;140102;-71
2023/10/13 15:25:51;;;;;;;7.40;6.00;;;;;;;18.53;76.19;99444.52;218128;1256;140099;-72
2023/10/13 15:31:10;;;;;;;6.10;5.50;;;;;;;18.45;76.62;99441.02;217792;1261;139386;-76
2023/10/13 15:36:15;;;;;;;7.10;5.30;;;;;;;18.39;76.76;99434.80;218152;1256;141039;-71
2023/10/13 15:41:27;;;;;;;7.10;4.90;;;;;;;18.33;77.01;99430.31;217697;1258;139926;-72
2023/10/13 15:46:35;;;;;;;10.50;5.60;;;;;;;18.32;77.25;99428.08;218129;1257;139443;-71
2023/10/13 15:51:47;;;;;;;7.80;4.70;;;;;;;18.27;77.20;99418.05;218847;1256;139710;-70
2023/10/13 15:56:55;;;;;;;7.50;5.80;;;;;;;18.17;77.24;99418.67;219111;1257;140853;-73
2023/10/13 16:02:07;;;;;;;9.70;5.40;;;;;;;18.05;77.43;99415.81;219260;1257;139625;-70
2023/10/13 16:07:20;;;;;;;6.40;4.60;;;;;;;17.94;77.68;99416.04;218076;1257;139757;-70
2023/10/13 16:12:34;;;;;;;12.10;5.50;;;;;;;17.84;77.76;99405.48;218991;1257;140147;-72
2023/10/13 16:17:44;;;;;;;6.80;6.10;;;;;;;17.76;78.10;99392.36;218626;1257;140439;-69
2023/10/13 16:23:01;;;;;;;6.30;5.20;;;;;;;17.72;78.39;99377.67;218103;1259;139817;-73
2023/10/13 16:28:12;;;;;;;7.30;6.50;;;;;;;17.66;78.53;99380.65;218884;1260;139609;-70
2023/10/13 16:33:28;;;;;;;29.50;7.00;;;;;;;17.65;78.86;99379.75;218412;1258;139710;-70
2023/10/13 16:38:36;;;;;;;5.90;4.90;;;;;;;17.65;78.88;99376.79;218303;1257;139923;-71
2023/10/13 16:43:45;;;;;;;7.60;6.10;;;;;;;17.62;79.05;99371.95;217823;1260;139735;-68
2023/10/13 16:48:51;;;;;;;8.00;4.80;;;;;;;17.61;79.34;99368.02;217738;1260;139684;-69
2023/10/13 16:54:00;;;;;;;7.80;5.00;;;;;;;17.59;79.50;99368.97;217337;1258;139712;-70
2023/10/13 16:59:09;;;;;;;6.00;5.40;;;;;;;17.58;79.64;99363.54;218197;1260;139742;-69
2023/10/13 17:04:24;;;;;;;9.00;5.50;;;;;;;17.58;79.75;99361.75;217761;1258;140337;-73
2023/10/13 17:09:50;;;;;;;5.40;4.30;;;;;;;17.56;79.79;99350.62;218165;1259;140583;-71
2023/10/13 17:15:09;;;;;;;7.60;5.00;;;;;;;17.55;80.05;99347.94;217265;1257;139547;-68
2023/10/13 17:20:28;;;;;;;8.30;5.70;;;;;;;17.54;80.09;99343.70;218356;1257;140796;-72
2023/10/13 17:25:41;;;;;;;6.20;5.30;;;;;;;17.55;80.24;99334.96;219010;1257;146836;-72
2023/10/13 17:30:52;;;;;;;7.10;5.80;;;;;;;17.54;80.33;99338.09;217872;1257;140310;-72
2023/10/13 17:36:06;;;;;;;7.00;5.10;;;;;;;17.52;80.34;99334.66;219707;1257;140228;-71
2023/10/13 17:41:49;;;;;;;4.60;4.00;;;;;;;17.49;80.41;99335.45;218694;1263;248185;-72
2023/10/13 17:46:58;;;;;;;6.30;5.00;;;;;;;17.47;80.41;99328.90;218916;1262;139697;-71
2023/10/13 17:52:08;;;;;;;8.50;5.50;;;;;;;17.46;80.51;99327.77;217094;1264;139946;-71
2023/10/13 17:57:27;;;;;;;5.10;4.70;;;;;;;17.42;80.62;99330.49;218575;1265;140462;-71
2023/10/13 18:02:35;;;;;;;10.70;5.90;;;;;;;17.39;80.77;99324.62;219592;1263;140723;-71
2023/10/13 18:07:45;;;;;;;8.20;4.60;;;;;;;17.36;80.90;99322.44;217157;1265;140314;-71
2023/10/13 18:12:52;;;;;;;8.80;5.70;;;;;;;17.34;80.90;99309.65;216912;1264;226993;-73
2023/10/13 18:18:01;;;;;;;8.50;5.40;;;;;;;17.27;81.25;99305.26;217924;1262;139784;-73
2023/10/13 18:23:11;;;;;;;6.70;5.90;;;;;;;17.22;81.37;99298.10;216829;1262;140772;-72
2023/10/13 18:28:23;;;;;;;10.40;5.60;;;;;;;17.18;81.76;99290.11;216419;1268;140596;-71
2023/10/13 18:33:36;;;;;;;6.00;4.80;;;;;;;17.16;82.03;99290.52;217103;1262;140873;-72
2023/10/13 18:38:55;;;;;;;8.50;5.60;;;;;;;17.14;82.31;99287.36;217546;1264;140670;-72
2023/10/13 18:44:17;;;;;;;9.70;5.40;;;;;;;17.12;82.48;99279.58;217375;1262;141460;-71
2023/10/13 18:49:37;;;;;;;8.90;6.60;;;;;;;17.09;82.67;99271.06;217456;1260;139892;-71
2023/10/13 18:54:53;;;;;;;5.70;5.20;;;;;;;17.10;82.89;99267.84;217395;1259;140313;-71
2023/10/13 19:00:06;;;;;;;7.10;5.10;;;;;;;17.11;82.98;99259.77;218094;1257;140319;-71
2023/10/13 19:05:21;;;;;;;10.60;5.50;;;;;;;17.12;82.97;99266.75;217772;1259;140034;-70
2023/10/13 19:10:36;;;;;;;8.50;5.10;;;;;;;17.16;83.28;99256.67;217726;1259;141976;-72
2023/10/13 19:15:45;;;;;;;7.10;6.00;;;;;;;17.18;83.31;99247.83;217878;1260;139844;-71
2023/10/13 19:21:17;;;;;;;5.90;5.00;;;;;;;17.18;83.23;99246.42;218346;1259;139809;-71
2023/10/13 19:26:33;;;;;;;6.10;5.50;;;;;;;17.18;83.45;99253.59;218281;1259;141027;-71
2023/10/13 19:31:49;;;;;;;8.60;6.20;;;;;;;17.21;83.27;99255.19;217470;1262;139724;-72
2023/10/13 19:37:03;;;;;;;6.50;5.00;;;;;;;17.21;83.34;99252.70;219047;1260;140876;-71
2023/10/13 19:42:18;;;;;;;6.90;4.90;;;;;;;17.21;83.32;99247.27;220132;1260;140274;-72
2023/10/13 19:47:28;;;;;;;11.60;6.20;;;;;;;17.23;83.28;99244.70;218476;1259;140024;-70
2023/10/13 19:52:40;;;;;;;8.50;5.80;;;;;;;17.24;83.21;99248.34;220055;1259;163090;-72
2023/10/13 19:57:50;;;;;;;7.20;5.60;;;;;;;17.25;83.13;99240.99;220049;1258;140240;-71
2023/10/13 20:03:01;;;;;;;7.00;4.90;;;;;;;17.27;83.21;99230.48;219488;1261;140049;-72
2023/10/13 20:08:14;;;;;;;10.30;6.50;;;;;;;17.31;83.16;99225.63;220264;1257;140716;-72
2023/10/13 20:13:26;;;;;;;11.90;5.70;;;;;;;17.37;83.22;99217.25;217564;1261;140322;-70
2023/10/13 20:18:35;;;;;;;6.60;5.10;;;;;;;17.41;83.09;99211.09;219429;1258;141107;-72
2023/10/13 20:23:44;;;;;;;7.30;4.50;;;;;;;17.44;83.21;99208.07;218346;1259;140081;-71
2023/10/13 20:28:52;;;;;;;6.10;5.50;;;;;;;17.46;83.08;99205.56;217545;1257;139913;-71
2023/10/13 20:33:59;;;;;;;14.00;6.50;;;;;;;17.44;83.10;99202.15;217771;1258;139570;-71
2023/10/13 20:39:05;;;;;;;7.00;5.30;;;;;;;17.41;83.11;99194.25;217536;1257;140840;-71
2023/10/13 20:44:14;;;;;;;6.80;5.60;;;;;;;17.37;83.19;99190.15;217973;1261;140460;-71
2023/10/13 20:49:22;;;;;;;9.20;5.20;;;;;;;17.33;83.07;99187.08;217717;1261;141487;-71
2023/10/13 20:54:30;;;;;;;9.00;5.30;;;;;;;17.29;83.06;99179.16;217836;1261;140394;-71
2023/10/13 20:59:40;;;;;;;10.20;6.00;;;;;;;17.26;83.15;99182.55;217525;1262;140107;-71
2023/10/13 21:04:47;;;;;;;8.70;5.50;;;;;;;17.26;83.24;99178.84;218517;1260;140159;-71
2023/10/13 21:09:54;;;;;;;;;;;;;;;17.23;83.22;99175.52;217663;1261;139815;-71
2023/10/13 21:15:02;;;;;;;9.00;6.00;;;;;;;17.22;83.14;99174.73;219409;1258;128078;-72
2023/10/13 21:20:13;;;;;;;11.90;5.70;;;;;;;17.25;83.08;99170.55;218218;1257;139936;-71
2023/10/13 21:25:26;;;;;;;9.60;5.60;;;;;;;17.26;82.79;99166.23;218816;1257;140545;-70
2023/10/13 21:30:33;;;;;;;12.40;5.70;;;;;;;17.26;82.73;99165.09;218259;1260;140677;-71
2023/10/13 21:35:39;;;;;;;9.80;7.30;;;;;;;17.27;82.55;99165.23;218229;1257;139839;-71
2023/10/13 21:40:45;;;;;;;10.10;5.60;;;;;;;17.26;82.55;99167.19;219998;1256;140324;-71
2023/10/13 21:45:51;;;;;;;10.00;5.80;;;;;;;17.26;82.59;99149.47;220355;1260;140477;-72
2023/10/13 21:50:59;;;;;;;7.80;5.40;;;;;;;17.27;82.39;99142.88;220124;1256;140642;-72
2023/10/13 21:56:11;;;;;;;13.20;5.20;;;;;;;17.28;82.22;99141.52;219779;1259;140185;-71
2023/10/13 22:01:27;;;;;;;10.90;5.80;;;;;;;17.28;82.05;99130.64;218587;1262;140689;-71
2023/10/13 22:06:35;;;;;;;13.00;6.10;;;;;;;17.25;82.01;99125.61;218682;1257;139723;-71
2023/10/13 22:11:39;;;;;;;9.40;6.40;;;;;;;17.20;81.90;99120.09;217829;1257;140415;-72
2023/10/13 22:16:46;;;;;;;8.40;5.20;;;;;;;17.15;81.85;99116.87;217812;1257;139682;-70
2023/10/13 22:21:52;;;;;;;14.50;6.80;;;;;;;17.09;81.80;99111.98;217780;1258;139850;-71
2023/10/13 22:26:56;;;;;;;9.50;6.30;;;;;;;17.02;81.95;99100.27;217546;1257;140106;-71
2023/10/13 22:32:00;;;;;;;8.70;7.00;;;;;;;16.97;82.03;99091.95;218875;1257;140735;-72
2023/10/13 22:37:06;;;;;;;9.80;6.60;;;;;;;16.93;82.02;99081.39;218707;1258;139659;-71
2023/10/13 22:42:12;;;;;;;9.20;4.80;;;;;;;16.91;82.16;99076.31;218366;1257;139950;-71
2023/10/13 22:47:18;;;;;;;17.10;7.40;;;;;;;16.87;82.22;99071.41;217999;1261;140360;-68
2023/10/13 22:52:23;;;;;;;10.70;7.10;;;;;;;16.85;82.16;99069.72;219098;1257;140969;-71
2023/10/13 22:57:31;;;;;;;17.30;7.10;;;;;;;16.85;82.23;99063.36;217813;1257;140278;-71
2023/10/13 23:02:40;;;;;;;12.60;6.80;;;;;;;16.83;82.06;99064.09;218185;1260;139960;-72
2023/10/13 23:08:00;;;;;;;9.50;6.60;;;;;;;16.80;82.12;99064.37;218638;1262;139960;-71
2023/10/13 23:13:06;;;;;;;11.40;6.10;;;;;;;16.76;82.03;99056.84;218412;1258;139793;-71
2023/10/13 23:18:11;;;;;;;17.00;6.80;;;;;;;16.75;82.08;99050.02;218972;1260;139667;-71
2023/10/13 23:23:17;;;;;;;7.80;6.50;;;;;;;16.72;81.98;99042.89;218790;1262;233266;-71
2023/10/13 23:28:21;;;;;;;12.20;6.60;;;;;;;16.72;81.95;99034.94;220244;1258;141012;-71
2023/10/13 23:33:40;;;;;;;9.30;6.10;;;;;;;16.71;81.93;99032.27;220296;1257;141094;-71
2023/10/13 23:39:09;;;;;;;15.30;6.20;;;;;;;16.69;81.84;99025.18;220349;1260;140957;-71
2023/10/13 23:44:14;;;;;;;13.40;6.80;;;;;;;16.69;81.47;99016.46;220299;1257;142763;-72
2023/10/13 23:49:19;;;;;;;11.50;6.70;;;;;;;16.67;81.44;99013.48;220176;1257;140814;-71
2023/10/13 23:54:30;;;;;;;12.30;6.90;;;;;;;16.66;81.53;99009.08;219874;1257;142319;-71
2023/10/13 23:59:40;;;;;;;11.30;6.40;;;;;;;16.67;81.33;99000.07;220059;1257;141748;-70
